Time;durP1;ratioP1;P1;durP2;ratioP2;P2;SDS_P1;SDS_P2;PMS_P1;PMS_P2;Temp;Humidity;BMP_temperature;BMP_pressure;BME280_temperature;BME280_humidity;BME280_pressure;Samples;Min_cycle;Max_cycle;Signal;HPM_P1;HPM_P2
2022/03/04 00:00:37;;;;;;;;;;;6.90;78.20;;;;;;5091484;28;19913;-87
2022/03/04 00:03:03;;;;;;;;;;;6.90;77.90;;;;;;5090445;28;19909;-87
2022/03/04 00:05:29;;;;;;;;;;;7.10;77.50;;;;;;5090383;28;19912;-86
2022/03/04 00:07:54;;;;;;;;;;;7.20;76.70;;;;;;5092456;28;20361;-86
2022/03/04 00:10:20;;;;;;;;;;;7.20;76.50;;;;;;5109234;28;20365;-86
2022/03/04 00:12:46;;;;;;;;;;;7.10;77.10;;;;;;5110870;28;19919;-86
2022/03/04 00:15:11;;;;;;;;;;;7.00;77.90;;;;;;5109038;28;19919;-86
2022/03/04 00:17:37;;;;;;;;;;;6.90;78.40;;;;;;5110478;28;20450;-86
2022/03/04 00:20:03;;;;;;;;;;;6.90;79.10;;;;;;5090315;28;20038;-86
2022/03/04 00:22:28;;;;;;;;;;;6.90;79.00;;;;;;5090105;28;19908;-86
2022/03/04 00:24:54;;;;;;;;;;;6.90;79.40;;;;;;5105577;28;19920;-86
2022/03/04 00:27:19;;;;;;;;;;;6.90;79.70;;;;;;5110311;28;19977;-86
2022/03/04 00:29:45;;;;;;;;;;;6.90;80.20;;;;;;5108392;28;19938;-86
2022/03/04 00:32:10;;;;;;;;;;;6.80;80.50;;;;;;5110247;28;19908;-86
2022/03/04 00:34:36;;;;;;;;;;;6.80;80.90;;;;;;5096888;28;19919;-86
2022/03/04 00:37:02;;;;;;;;;;;6.80;81.20;;;;;;5089796;28;19909;-86
2022/03/04 00:39:27;;;;;;;;;;;6.80;81.40;;;;;;5104180;28;19958;-86
2022/03/04 00:41:53;;;;;;;;;;;6.80;81.70;;;;;;5108758;28;19912;-86
2022/03/04 00:44:18;;;;;;;;;;;6.80;81.90;;;;;;5098154;28;19985;-86
2022/03/04 00:46:44;;;;;;;;;;;6.80;82.50;;;;;;5089827;28;19918;-87
2022/03/04 00:49:10;;;;;;;;;;;6.90;83.10;;;;;;5100675;28;19916;-87
2022/03/04 00:51:35;;;;;;;;;;;6.90;83.00;;;;;;5110107;28;20270;-86
2022/03/04 00:54:01;;;;;;;;;;;7.00;82.70;;;;;;5100981;28;20363;-87
2022/03/04 00:56:26;;;;;;;;;;;7.00;82.30;;;;;;5081371;28;20339;-87
2022/03/04 00:58:52;;;;;;;;;;;7.00;82.50;;;;;;5084657;28;19912;-86
2022/03/04 01:01:17;;;;;;;;;;;7.10;82.30;;;;;;5096045;28;19912;-86
2022/03/04 01:03:43;;;;;;;;;;;7.10;82.60;;;;;;5089887;28;19912;-86
2022/03/04 01:06:08;;;;;;;;;;;7.10;82.30;;;;;;5075669;28;20297;-86
2022/03/04 01:08:34;;;;;;;;;;;7.00;82.10;;;;;;5081741;28;20400;-86
2022/03/04 01:13:22;;;;;;;;;;;6.90;82.20;;;;;;5110487;27;20385;-86
2022/03/04 01:15:48;;;;;;;;;;;6.90;81.90;;;;;;5094188;28;20014;-86
2022/03/04 01:18:14;;;;;;;;;;;6.90;82.10;;;;;;5093703;28;19911;-86
2022/03/04 01:20:39;;;;;;;;;;;7.10;81.50;;;;;;5110964;28;20284;-86
2022/03/04 01:23:05;;;;;;;;;;;7.20;80.80;;;;;;5110495;28;19908;-86
2022/03/04 01:26:48;;;;;;;;;;;7.30;80.40;;;;;;5111126;27;19912;-86
2022/03/04 01:29:15;;;;;;;;;;;7.30;79.70;;;;;;5109354;28;19918;-86
2022/03/04 01:31:40;;;;;;;;;;;7.20;79.60;;;;;;5110991;28;19951;-86
2022/03/04 01:34:06;;;;;;;;;;;7.20;79.60;;;;;;5102203;28;19919;-86
2022/03/04 01:36:33;;;;;;;;;;;7.10;80.30;;;;;;5090552;28;19916;-86
2022/03/04 01:38:59;;;;;;;;;;;7.00;80.70;;;;;;5099572;28;19912;-86
2022/03/04 01:41:24;;;;;;;;;;;7.00;80.10;;;;;;5110834;28;19915;-86
2022/03/04 01:43:50;;;;;;;;;;;6.80;80.30;;;;;;5104273;28;19919;-86
2022/03/04 01:46:16;;;;;;;;;;;6.70;80.50;;;;;;5090319;28;19924;-86
2022/03/04 01:48:43;;;;;;;;;;;6.60;80.60;;;;;;5091384;28;19913;-86
2022/03/04 01:51:09;;;;;;;;;;;6.60;80.50;;;;;;5096005;28;20285;-86
2022/03/04 01:53:35;;;;;;;;;;;6.60;79.90;;;;;;5110848;28;19930;-86
2022/03/04 01:58:11;;;;;;;;;;;6.50;80.00;;;;;;5110337;27;19912;-86
2022/03/04 02:00:36;;;;;;;;;;;6.50;80.50;;;;;;5110916;28;20310;-86
2022/03/04 02:03:41;;;;;;;;;;;6.60;80.80;;;;;;5111119;27;19918;-86
2022/03/04 02:06:07;;;;;;;;;;;6.50;80.70;;;;;;5110981;28;19912;-86
2022/03/04 02:08:33;;;;;;;;;;;6.50;80.70;;;;;;5110203;28;19938;-86
2022/03/04 02:10:58;;;;;;;;;;;6.40;80.50;;;;;;5110946;28;19938;-86
2022/03/04 02:13:24;;;;;;;;;;;6.40;80.20;;;;;;5109524;28;20342;-86
2022/03/04 02:15:49;;;;;;;;;;;6.30;80.40;;;;;;5110440;28;19908;-86
2022/03/04 02:21:52;;;;;;;;;;;6.40;80.10;;;;;;5110158;27;20154;-86
2022/03/04 02:24:18;;;;;;;;;;;6.20;79.00;;;;;;5111276;28;19912;-86
2022/03/04 02:26:44;;;;;;;;;;;6.10;79.30;;;;;;5110964;28;19908;-86
2022/03/04 02:29:10;;;;;;;;;;;5.90;79.40;;;;;;5093821;28;19915;-86
2022/03/04 02:31:35;;;;;;;;;;;5.90;79.40;;;;;;5090506;28;19952;-86
2022/03/04 02:34:05;;;;;;;;;;;5.80;79.80;;;;;;5090581;28;19934;-86
2022/03/04 02:36:31;;;;;;;;;;;5.80;80.30;;;;;;5090502;28;19908;-86
2022/03/04 02:38:56;;;;;;;;;;;5.70;81.00;;;;;;5104876;28;19908;-86
2022/03/04 02:41:22;;;;;;;;;;;5.70;81.00;;;;;;5110663;28;19920;-86
2022/03/04 02:43:48;;;;;;;;;;;5.60;81.00;;;;;;5099301;28;19916;-87
2022/03/04 02:46:13;;;;;;;;;;;5.60;80.60;;;;;;5090321;28;19997;-86
2022/03/04 02:48:39;;;;;;;;;;;5.60;80.30;;;;;;5102403;28;20008;-86
2022/03/04 02:51:05;;;;;;;;;;;5.40;80.40;;;;;;5110527;28;20061;-86
2022/03/04 02:53:31;;;;;;;;;;;5.40;80.60;;;;;;5110804;28;19915;-86
2022/03/04 02:55:56;;;;;;;;;;;5.40;80.90;;;;;;5110702;28;20365;-86
2022/03/04 02:58:22;;;;;;;;;;;5.40;81.20;;;;;;5101644;28;19912;-86
2022/03/04 03:00:48;;;;;;;;;;;5.30;81.40;;;;;;5089905;28;19917;-86
2022/03/04 03:03:13;;;;;;;;;;;5.40;81.90;;;;;;5089950;28;19959;-87
2022/03/04 03:05:39;;;;;;;;;;;5.40;82.50;;;;;;5089928;28;19920;-86
2022/03/04 03:08:04;;;;;;;;;;;5.40;82.50;;;;;;5096409;28;19916;-86
2022/03/04 03:10:31;;;;;;;;;;;5.40;82.60;;;;;;5110329;28;19912;-86
2022/03/04 03:12:57;;;;;;;;;;;5.20;82.80;;;;;;5105828;28;19969;-86
2022/03/04 03:15:22;;;;;;;;;;;5.00;83.70;;;;;;5107243;28;20332;-86
2022/03/04 03:17:48;;;;;;;;;;;4.90;84.30;;;;;;5105675;28;19909;-86
2022/03/04 03:20:13;;;;;;;;;;;4.80;84.90;;;;;;5089566;28;20348;-86
2022/03/04 03:22:39;;;;;;;;;;;4.70;85.40;;;;;;5089910;28;20479;-86
2022/03/04 03:25:05;;;;;;;;;;;4.80;85.10;;;;;;5089593;28;20399;-86
2022/03/04 03:27:30;;;;;;;;;;;4.80;85.20;;;;;;5090692;28;19908;-86
2022/03/04 03:29:56;;;;;;;;;;;4.80;85.50;;;;;;5109714;28;20277;-86
2022/03/04 03:32:21;;;;;;;;;;;4.80;85.50;;;;;;5100889;28;20293;-86
2022/03/04 03:34:47;;;;;;;;;;;4.80;85.30;;;;;;5096147;28;19944;-86
2022/03/04 03:37:12;;;;;;;;;;;4.80;85.30;;;;;;5096104;28;20321;-86
2022/03/04 03:39:38;;;;;;;;;;;4.70;85.40;;;;;;5076816;28;19977;-86
2022/03/04 03:42:05;;;;;;;;;;;4.70;85.00;;;;;;5076015;28;19962;-86
2022/03/04 03:44:30;;;;;;;;;;;4.50;84.20;;;;;;5081178;28;19948;-86
2022/03/04 03:46:56;;;;;;;;;;;4.40;84.00;;;;;;5075742;28;19955;-86
2022/03/04 03:49:21;;;;;;;;;;;4.20;83.60;;;;;;5091614;28;19961;-85
2022/03/04 03:51:47;;;;;;;;;;;4.10;83.90;;;;;;5095781;28;20333;-86
2022/03/04 03:54:13;;;;;;;;;;;3.90;84.10;;;;;;5088662;28;19913;-86
2022/03/04 03:58:07;;;;;;;;;;;3.80;84.60;;;;;;5106167;27;20378;-86
2022/03/04 04:02:23;;;;;;;;;;;3.70;84.60;;;;;;5111098;27;19912;-86
2022/03/04 04:04:49;;;;;;;;;;;3.60;85.40;;;;;;5110393;28;19996;-86
2022/03/04 04:07:14;;;;;;;;;;;3.70;85.60;;;;;;5110962;28;19962;-86
2022/03/04 04:09:40;;;;;;;;;;;3.70;85.60;;;;;;5092251;28;20158;-86
2022/03/04 04:12:06;;;;;;;;;;;3.70;85.50;;;;;;5090630;28;19913;-86
2022/03/04 04:14:32;;;;;;;;;;;3.60;85.50;;;;;;5092432;28;19916;-86
2022/03/04 04:16:57;;;;;;;;;;;3.60;85.50;;;;;;5090475;28;19908;-86
2022/03/04 04:19:23;;;;;;;;;;;3.70;85.40;;;;;;5105761;28;19912;-86
2022/03/04 04:21:50;;;;;;;;;;;3.60;85.50;;;;;;5110607;28;20366;-86
2022/03/04 04:24:15;;;;;;;;;;;3.50;85.90;;;;;;5097390;28;20007;-86
2022/03/04 04:27:36;;;;;;;;;;;3.50;86.30;;;;;;5110434;27;19912;-86
2022/03/04 04:30:02;;;;;;;;;;;3.50;86.50;;;;;;5111193;28;19918;-86
2022/03/04 04:32:28;;;;;;;;;;;3.50;86.50;;;;;;5110940;28;19961;-86
2022/03/04 04:34:54;;;;;;;;;;;3.40;86.40;;;;;;5092543;28;19912;-86
2022/03/04 04:37:19;;;;;;;;;;;3.40;86.10;;;;;;5106219;28;20388;-86
2022/03/04 04:39:45;;;;;;;;;;;3.30;85.80;;;;;;5108415;28;19915;-86
2022/03/04 04:42:10;;;;;;;;;;;3.20;85.70;;;;;;5110796;28;20386;-86
2022/03/04 04:44:36;;;;;;;;;;;3.20;86.10;;;;;;5094978;28;19908;-86
2022/03/04 04:47:01;;;;;;;;;;;3.20;86.60;;;;;;5090294;28;19922;-86
2022/03/04 04:49:27;;;;;;;;;;;3.30;86.80;;;;;;5091405;28;19948;-86
2022/03/04 04:51:53;;;;;;;;;;;3.40;86.20;;;;;;5090312;28;20269;-86
2022/03/04 04:54:18;;;;;;;;;;;3.50;86.50;;;;;;5135814;27;19923;-86
2022/03/04 04:56:44;;;;;;;;;;;3.50;86.80;;;;;;5110555;28;20384;-86
2022/03/04 04:59:10;;;;;;;;;;;3.50;86.90;;;;;;5096284;28;19915;-86
2022/03/04 05:01:36;;;;;;;;;;;3.60;86.70;;;;;;5090388;28;19913;-86
2022/03/04 05:04:01;;;;;;;;;;;3.50;85.30;;;;;;5100072;28;20396;-86
2022/03/04 05:06:27;;;;;;;;;;;3.30;84.60;;;;;;5102048;28;19921;-86
2022/03/04 05:08:52;;;;;;;;;;;3.20;84.50;;;;;;5102920;28;19915;-86
2022/03/04 05:11:18;;;;;;;;;;;3.10;84.70;;;;;;5110282;28;20023;-86
2022/03/04 05:13:43;;;;;;;;;;;3.00;85.70;;;;;;5102344;28;19951;-86
2022/03/04 05:16:09;;;;;;;;;;;2.90;86.10;;;;;;5097950;28;19959;-86
2022/03/04 05:18:34;;;;;;;;;;;2.80;87.00;;;;;;5089823;28;19908;-86
2022/03/04 05:21:02;;;;;;;;;;;2.80;87.80;;;;;;5089770;28;19909;-86
2022/03/04 05:24:18;;;;;;;;;;;2.80;88.30;;;;;;5100511;27;2042919;-86
2022/03/04 05:26:43;;;;;;;;;;;2.80;89.00;;;;;;5173088;27;20005;-86
2022/03/04 05:29:10;;;;;;;;;;;2.90;89.20;;;;;;5163482;27;19907;-86
2022/03/04 05:31:36;;;;;;;;;;;3.00;89.30;;;;;;5152155;27;19918;-86
2022/03/04 05:34:02;;;;;;;;;;;3.10;89.50;;;;;;5149828;27;19907;-86
2022/03/04 05:36:28;;;;;;;;;;;3.20;89.50;;;;;;5150387;27;19964;-86
2022/03/04 05:38:53;;;;;;;;;;;3.20;88.70;;;;;;5151364;27;19908;-86
2022/03/04 05:41:19;;;;;;;;;;;3.20;88.40;;;;;;5150140;27;19911;-86
2022/03/04 05:43:45;;;;;;;;;;;3.00;88.50;;;;;;5151062;27;19915;-85
2022/03/04 05:46:13;;;;;;;;;;;2.90;89.30;;;;;;5131950;27;19920;-86
2022/03/04 05:48:38;;;;;;;;;;;2.70;88.90;;;;;;5145263;27;20396;-86
2022/03/04 05:51:04;;;;;;;;;;;2.70;89.90;;;;;;5151646;27;19919;-86
2022/03/04 05:53:30;;;;;;;;;;;2.50;90.90;;;;;;5143306;27;19908;-86
2022/03/04 05:55:55;;;;;;;;;;;2.40;90.40;;;;;;5147364;27;19959;-86
2022/03/04 05:58:21;;;;;;;;;;;2.40;90.70;;;;;;5152492;27;19964;-86
2022/03/04 06:00:47;;;;;;;;;;;2.40;91.40;;;;;;5152829;27;20003;-86
2022/03/04 06:03:12;;;;;;;;;;;2.50;91.20;;;;;;5150856;27;20261;-86
2022/03/04 06:05:39;;;;;;;;;;;2.50;91.00;;;;;;5150504;27;19974;-86
2022/03/04 06:08:04;;;;;;;;;;;2.50;91.10;;;;;;5162115;27;20075;-86
2022/03/04 06:10:30;;;;;;;;;;;2.50;90.90;;;;;;5128380;27;20365;-86
2022/03/04 06:12:56;;;;;;;;;;;2.50;90.20;;;;;;5143777;27;19950;-86
2022/03/04 06:15:21;;;;;;;;;;;2.40;89.50;;;;;;5139460;27;20417;-86
2022/03/04 06:17:47;;;;;;;;;;;2.40;90.10;;;;;;5138804;27;20266;-86
2022/03/04 06:20:13;;;;;;;;;;;2.50;90.10;;;;;;5134695;27;19912;-86
2022/03/04 06:22:38;;;;;;;;;;;2.70;90.00;;;;;;5135860;27;19973;-86
2022/03/04 06:25:04;;;;;;;;;;;2.80;89.70;;;;;;5137963;27;20262;-86
2022/03/04 06:27:30;;;;;;;;;;;2.90;89.30;;;;;;5131435;27;19965;-86
2022/03/04 06:29:56;;;;;;;;;;;3.00;89.10;;;;;;5134943;27;19920;-86
2022/03/04 06:32:21;;;;;;;;;;;3.10;88.90;;;;;;5140358;27;19919;-86
2022/03/04 06:34:47;;;;;;;;;;;3.10;88.20;;;;;;5123809;27;20039;-86
2022/03/04 06:37:12;;;;;;;;;;;2.90;87.90;;;;;;5117522;27;20323;-86
2022/03/04 06:39:39;;;;;;;;;;;2.90;88.00;;;;;;5122140;27;19911;-86
2022/03/04 06:42:04;;;;;;;;;;;2.90;88.20;;;;;;5118512;27;19919;-86
2022/03/04 06:44:30;;;;;;;;;;;3.00;87.90;;;;;;5104878;28;20281;-85
2022/03/04 06:46:55;;;;;;;;;;;3.00;87.70;;;;;;5116978;27;20381;-85
2022/03/04 06:49:21;;;;;;;;;;;3.10;87.50;;;;;;5122632;27;20292;-86
2022/03/04 06:51:46;;;;;;;;;;;3.10;87.30;;;;;;5118290;27;19920;-85
2022/03/04 06:54:12;;;;;;;;;;;3.10;87.10;;;;;;5121924;27;19920;-87
2022/03/04 06:56:38;;;;;;;;;;;3.20;87.10;;;;;;5117179;27;19919;-85
2022/03/04 06:59:03;;;;;;;;;;;3.30;86.90;;;;;;5126085;27;19911;-85
2022/03/04 07:01:29;;;;;;;;;;;3.40;86.90;;;;;;5116706;27;20389;-85
2022/03/04 07:03:54;;;;;;;;;;;3.50;86.90;;;;;;5124557;27;19915;-86
2022/03/04 07:06:20;;;;;;;;;;;3.60;86.70;;;;;;5116259;27;19915;-86
2022/03/04 07:08:46;;;;;;;;;;;3.70;86.50;;;;;;5119736;27;20250;-86
2022/03/04 07:11:11;;;;;;;;;;;3.80;86.40;;;;;;5119624;27;19908;-86
2022/03/04 07:13:37;;;;;;;;;;;3.90;86.00;;;;;;5122326;27;19917;-85
2022/03/04 07:16:03;;;;;;;;;;;3.90;85.90;;;;;;5122164;27;20276;-85
2022/03/04 07:18:29;;;;;;;;;;;3.90;86.30;;;;;;5120058;27;19912;-85
2022/03/04 07:23:16;;;;;;;;;;;3.90;86.30;;;;;;5093206;27;20328;-85
2022/03/04 07:25:41;;;;;;;;;;;3.90;86.30;;;;;;5068311;28;19913;-85
2022/03/04 07:28:08;;;;;;;;;;;4.00;86.50;;;;;;5078474;28;19912;-85
2022/03/04 07:30:34;;;;;;;;;;;4.10;86.80;;;;;;5086491;28;19919;-85
2022/03/04 07:32:59;;;;;;;;;;;4.30;87.00;;;;;;5068906;28;19912;-86
2022/03/04 07:35:25;;;;;;;;;;;4.40;86.90;;;;;;5075797;28;19958;-85
2022/03/04 07:37:50;;;;;;;;;;;4.50;86.60;;;;;;5068198;28;19927;-85
2022/03/04 07:40:16;;;;;;;;;;;4.70;86.10;;;;;;5071704;28;20370;-85
2022/03/04 07:42:42;;;;;;;;;;;4.90;85.50;;;;;;5071117;28;19963;-86
2022/03/04 07:45:09;;;;;;;;;;;5.00;84.40;;;;;;5070897;28;19999;-85
2022/03/04 07:47:35;;;;;;;;;;;5.30;84.20;;;;;;5071373;28;19963;-85
2022/03/04 07:50:01;;;;;;;;;;;5.50;83.90;;;;;;5069692;28;19913;-86
2022/03/04 07:52:31;;;;;;;;;;;5.70;82.10;;;;;;5067297;28;19947;-85
2022/03/04 07:55:04;;;;;;;;;;;5.90;79.10;;;;;;5069936;28;19985;-85
2022/03/04 07:57:29;;;;;;;;;;;6.10;78.90;;;;;;5070009;28;19913;-85
2022/03/04 07:59:55;;;;;;;;;;;6.40;77.30;;;;;;5070023;28;19931;-85
2022/03/04 08:02:21;;;;;;;;;;;6.70;75.70;;;;;;5067414;28;19942;-85
2022/03/04 08:04:47;;;;;;;;;;;7.10;70.10;;;;;;5064856;28;19927;-85
2022/03/04 08:07:13;;;;;;;;;;;7.40;68.50;;;;;;5067825;28;20443;-85
2022/03/04 08:09:39;;;;;;;;;;;7.60;67.80;;;;;;5069382;28;19920;-86
2022/03/04 08:12:05;;;;;;;;;;;7.80;65.70;;;;;;5068183;28;19913;-85
2022/03/04 08:14:30;;;;;;;;;;;8.00;63.30;;;;;;5069574;28;20306;-86
2022/03/04 08:16:56;;;;;;;;;;;8.20;62.30;;;;;;5068046;28;19916;-86
2022/03/04 08:19:21;;;;;;;;;;;8.40;61.10;;;;;;5074467;28;20278;-86
2022/03/04 08:21:47;;;;;;;;;;;8.50;60.60;;;;;;5064387;28;19921;-86
2022/03/04 08:24:12;;;;;;;;;;;8.70;60.70;;;;;;5066450;28;19913;-86
2022/03/04 08:26:41;;;;;;;;;;;8.90;57.60;;;;;;5066857;28;20404;-86
2022/03/04 08:29:10;;;;;;;;;;;9.00;55.10;;;;;;5067641;28;20020;-86
2022/03/04 08:31:36;;;;;;;;;;;9.00;55.10;;;;;;5064306;28;19966;-86
2022/03/04 08:34:02;;;;;;;;;;;8.90;54.60;;;;;;5059921;28;19920;-86
2022/03/04 08:36:27;;;;;;;;;;;9.00;54.40;;;;;;5053930;28;19963;-86
2022/03/04 08:38:53;;;;;;;;;;;9.00;55.30;;;;;;5057616;28;19920;-86
2022/03/04 08:41:18;;;;;;;;;;;9.10;54.00;;;;;;5060804;28;20669;-86
2022/03/04 08:43:46;;;;;;;;;;;9.10;54.60;;;;;;5062903;28;19917;-86
2022/03/04 08:46:14;;;;;;;;;;;9.30;53.70;;;;;;5067237;28;20031;-86
2022/03/04 08:48:43;;;;;;;;;;;9.40;53.30;;;;;;5071696;28;19960;-87
2022/03/04 08:51:08;;;;;;;;;;;9.50;51.50;;;;;;5070967;28;19912;-86
2022/03/04 08:53:34;;;;;;;;;;;9.60;49.90;;;;;;5056043;28;19912;-87
2022/03/04 08:55:59;;;;;;;;;;;9.60;49.70;;;;;;5067358;28;19935;-87
2022/03/04 08:58:25;;;;;;;;;;;9.70;50.20;;;;;;5065554;28;19912;-87
2022/03/04 09:00:50;;;;;;;;;;;9.70;48.00;;;;;;5067231;28;19951;-87
2022/03/04 09:03:16;;;;;;;;;;;9.60;48.30;;;;;;5074289;28;19923;-87
2022/03/04 09:05:42;;;;;;;;;;;9.60;46.60;;;;;;5061881;28;20354;-87
2022/03/04 09:08:07;;;;;;;;;;;9.70;46.70;;;;;;5063259;28;19921;-86
2022/03/04 09:10:33;;;;;;;;;;;9.70;46.00;;;;;;5071961;28;19937;-86
2022/03/04 09:12:58;;;;;;;;;;;9.70;46.90;;;;;;5064930;28;19912;-86
2022/03/04 09:15:24;;;;;;;;;;;9.80;45.40;;;;;;5062083;28;19958;-86
2022/03/04 09:17:50;;;;;;;;;;;9.90;47.10;;;;;;5059832;28;19974;-86
2022/03/04 09:20:19;;;;;;;;;;;10.00;46.80;;;;;;5042682;28;20275;-87
2022/03/04 09:22:45;;;;;;;;;;;10.00;47.60;;;;;;5040456;28;20396;-86
2022/03/04 09:25:11;;;;;;;;;;;10.10;47.30;;;;;;5053810;28;19912;-86
2022/03/04 09:27:36;;;;;;;;;;;10.20;46.40;;;;;;5053043;28;19923;-86
2022/03/04 09:30:02;;;;;;;;;;;10.30;47.90;;;;;;5051769;28;19912;-86
2022/03/04 09:32:28;;;;;;;;;;;10.40;46.30;;;;;;5055846;28;19978;-87
2022/03/04 09:34:53;;;;;;;;;;;10.50;44.40;;;;;;5060873;28;19952;-87
2022/03/04 09:37:19;;;;;;;;;;;10.70;45.50;;;;;;5049438;28;19941;-86
2022/03/04 09:39:44;;;;;;;;;;;10.60;43.40;;;;;;5052634;28;20003;-87
2022/03/04 09:42:11;;;;;;;;;;;10.70;44.60;;;;;;5054905;28;20022;-86
2022/03/04 09:44:36;;;;;;;;;;;10.60;45.40;;;;;;5049525;28;19919;-86
2022/03/04 09:47:02;;;;;;;;;;;10.60;43.20;;;;;;5057266;28;20012;-86
2022/03/04 09:49:32;;;;;;;;;;;10.60;42.30;;;;;;5054716;28;19935;-86
2022/03/04 09:51:57;;;;;;;;;;;10.70;42.70;;;;;;5048240;28;19972;-86
2022/03/04 09:54:26;;;;;;;;;;;10.80;42.10;;;;;;5050885;28;19952;-86
2022/03/04 09:56:52;;;;;;;;;;;10.80;41.60;;;;;;5051531;28;19913;-86
2022/03/04 09:59:17;;;;;;;;;;;10.90;40.30;;;;;;5053558;28;19913;-86
2022/03/04 10:01:44;;;;;;;;;;;11.00;40.50;;;;;;5050576;28;19917;-86
2022/03/04 10:04:11;;;;;;;;;;;11.10;40.10;;;;;;5049050;28;20379;-87
2022/03/04 10:06:38;;;;;;;;;;;11.20;40.30;;;;;;5048594;28;20298;-86
2022/03/04 10:09:04;;;;;;;;;;;11.20;39.90;;;;;;5050904;28;19920;-87
2022/03/04 10:11:34;;;;;;;;;;;11.40;40.70;;;;;;5059019;28;19919;-86
2022/03/04 10:14:01;;;;;;;;;;;11.40;38.90;;;;;;5055528;28;19919;-86
2022/03/04 10:16:28;;;;;;;;;;;11.60;38.70;;;;;;5049038;28;20570;-87
2022/03/04 10:19:13;;;;;;;;;;;11.70;38.40;;;;;;5050391;28;20393;-87
2022/03/04 10:21:57;;;;;;;;;;;11.80;37.90;;;;;;5052204;28;19921;-86
2022/03/04 10:24:48;;;;;;;;;;;12.00;39.70;;;;;;5052032;28;19967;-86
2022/03/04 10:27:15;;;;;;;;;;;11.90;36.90;;;;;;5043787;28;19913;-86
2022/03/04 10:29:42;;;;;;;;;;;11.90;36.70;;;;;;5051567;28;19917;-86
2022/03/04 10:32:10;;;;;;;;;;;11.70;36.00;;;;;;5064992;28;19923;-86
2022/03/04 10:34:42;;;;;;;;;;;11.60;36.70;;;;;;5057394;28;19958;-86
2022/03/04 10:37:07;;;;;;;;;;;11.70;37.00;;;;;;5054667;28;19921;-86
2022/03/04 10:39:33;;;;;;;;;;;11.90;39.20;;;;;;5048627;28;19967;-87
2022/03/04 10:41:59;;;;;;;;;;;12.00;38.50;;;;;;5054825;28;19917;-86
2022/03/04 10:44:27;;;;;;;;;;;12.20;36.50;;;;;;5062426;28;20293;-87
2022/03/04 10:46:54;;;;;;;;;;;12.20;35.50;;;;;;5058949;28;19913;-87
2022/03/04 10:49:27;;;;;;;;;;;12.30;36.10;;;;;;5050951;28;20301;-87
2022/03/04 10:52:08;;;;;;;;;;;12.40;36.00;;;;;;5060641;28;19913;-87
2022/03/04 10:54:34;;;;;;;;;;;12.70;39.00;;;;;;5050483;28;19921;-87
2022/03/04 10:57:03;;;;;;;;;;;12.80;37.00;;;;;;5053071;28;19967;-86
2022/03/04 10:59:29;;;;;;;;;;;12.80;36.60;;;;;;5053056;28;19963;-87
2022/03/04 11:01:57;;;;;;;;;;;12.80;35.80;;;;;;5052416;28;19964;-87
2022/03/04 11:04:23;;;;;;;;;;;12.80;35.80;;;;;;5057224;28;19913;-87
2022/03/04 11:06:49;;;;;;;;;;;12.70;35.60;;;;;;5052107;28;19913;-87
2022/03/04 11:09:15;;;;;;;;;;;12.80;35.00;;;;;;5056915;28;19917;-87
2022/03/04 11:11:43;;;;;;;;;;;12.90;33.80;;;;;;5058807;28;20294;-87
2022/03/04 11:14:12;;;;;;;;;;;13.10;33.40;;;;;;5062276;28;19920;-87
2022/03/04 11:16:38;;;;;;;;;;;13.20;35.20;;;;;;5052461;28;20359;-87
2022/03/04 11:19:05;;;;;;;;;;;13.40;33.90;;;;;;5052950;28;19963;-87
2022/03/04 11:21:31;;;;;;;;;;;13.50;32.50;;;;;;5052699;28;19921;-87
2022/03/04 11:23:56;;;;;;;;;;;13.70;35.40;;;;;;5052614;28;20405;-87
2022/03/04 11:26:25;;;;;;;;;;;13.90;34.50;;;;;;5052489;28;20405;-87
2022/03/04 11:28:51;;;;;;;;;;;14.20;34.00;;;;;;5052541;28;19967;-87
2022/03/04 11:31:21;;;;;;;;;;;14.40;33.50;;;;;;5052787;28;19927;-87
2022/03/04 11:33:48;;;;;;;;;;;14.30;32.90;;;;;;5052832;28;19916;-87
2022/03/04 11:36:16;;;;;;;;;;;14.00;34.00;;;;;;5053108;28;19935;-87
2022/03/04 11:38:44;;;;;;;;;;;13.90;34.00;;;;;;5052535;28;19913;-87
2022/03/04 11:41:20;;;;;;;;;;;13.90;33.90;;;;;;5052374;28;19920;-87
2022/03/04 11:43:46;;;;;;;;;;;14.00;34.30;;;;;;5052567;28;19942;-87
2022/03/04 11:46:18;;;;;;;;;;;14.10;34.20;;;;;;5052450;28;19909;-87
2022/03/04 11:48:44;;;;;;;;;;;14.30;34.40;;;;;;5052711;28;19909;-87
2022/03/04 11:51:15;;;;;;;;;;;14.70;33.20;;;;;;5052430;28;19927;-87
2022/03/04 11:53:40;;;;;;;;;;;14.90;32.00;;;;;;5052809;28;19917;-87
2022/03/04 11:56:15;;;;;;;;;;;15.10;33.70;;;;;;5052693;28;19975;-88
2022/03/04 11:58:56;;;;;;;;;;;15.30;33.50;;;;;;5051077;28;19919;-87
2022/03/04 12:01:27;;;;;;;;;;;15.70;32.10;;;;;;5052381;28;19920;-88
2022/03/04 12:04:12;;;;;;;;;;;16.00;31.10;;;;;;5051648;28;19912;-88
2022/03/04 12:06:39;;;;;;;;;;;16.10;30.90;;;;;;5052534;28;20373;-88
2022/03/04 12:09:23;;;;;;;;;;;16.00;28.10;;;;;;5053652;28;19917;-87
2022/03/04 12:12:07;;;;;;;;;;;15.90;30.80;;;;;;5036341;28;19913;-87
2022/03/04 12:14:34;;;;;;;;;;;16.00;29.20;;;;;;5036280;28;20393;-87
2022/03/04 12:16:59;;;;;;;;;;;16.00;28.40;;;;;;5059841;28;20271;-87
2022/03/04 12:19:28;;;;;;;;;;;15.60;28.10;;;;;;5055334;28;19967;-87
2022/03/04 12:21:56;;;;;;;;;;;15.70;30.40;;;;;;5055331;28;19921;-87
2022/03/04 12:24:31;;;;;;;;;;;16.40;29.10;;;;;;5056049;28;19916;-87
2022/03/04 12:26:57;;;;;;;;;;;17.30;28.10;;;;;;5054551;28;19955;-88
2022/03/04 12:29:40;;;;;;;;;;;17.90;26.40;;;;;;5054731;28;19963;-88
2022/03/04 12:32:05;;;;;;;;;;;18.10;25.30;;;;;;5055360;28;19912;-87
2022/03/04 12:34:32;;;;;;;;;;;18.20;24.30;;;;;;5052243;28;20000;-88
2022/03/04 12:36:58;;;;;;;;;;;19.00;25.00;;;;;;5053846;28;21318;-87
2022/03/04 12:39:24;;;;;;;;;;;19.60;23.90;;;;;;5053586;28;19913;-88
2022/03/04 12:41:56;;;;;;;;;;;19.60;23.80;;;;;;5052079;28;20274;-88
2022/03/04 12:44:22;;;;;;;;;;;19.50;24.00;;;;;;5042769;28;19919;-88
2022/03/04 12:46:47;;;;;;;;;;;19.50;23.90;;;;;;5052468;28;19917;-88
2022/03/04 12:49:15;;;;;;;;;;;19.50;23.40;;;;;;5055121;28;19999;-87
2022/03/04 12:51:41;;;;;;;;;;;19.20;23.70;;;;;;5053939;28;20371;-88
2022/03/04 12:54:13;;;;;;;;;;;19.40;24.40;;;;;;5053842;28;19973;-88
2022/03/04 12:56:40;;;;;;;;;;;19.50;22.70;;;;;;5053101;28;19951;-88
2022/03/04 12:59:08;;;;;;;;;;;19.40;23.80;;;;;;5053864;28;19912;-88
2022/03/04 13:01:33;;;;;;;;;;;20.30;22.10;;;;;;5052924;28;20282;-88
2022/03/04 13:04:00;;;;;;;;;;;20.30;21.00;;;;;;5054893;28;19913;-88
2022/03/04 13:06:29;;;;;;;;;;;20.30;22.90;;;;;;5054892;28;19999;-88
2022/03/04 13:08:57;;;;;;;;;;;21.20;22.00;;;;;;5053608;28;19912;-88
2022/03/04 13:11:24;;;;;;;;;;;21.80;21.10;;;;;;5053218;28;20260;-87
2022/03/04 13:13:50;;;;;;;;;;;21.80;20.60;;;;;;5052922;28;19913;-87
2022/03/04 13:16:19;;;;;;;;;;;21.10;21.10;;;;;;5053717;28;19913;-87
2022/03/04 13:18:45;;;;;;;;;;;20.80;21.60;;;;;;5069625;28;20362;-87
2022/03/04 13:21:11;;;;;;;;;;;20.30;21.20;;;;;;5069125;28;19928;-87
2022/03/04 13:23:36;;;;;;;;;;;20.50;22.60;;;;;;5058725;28;19917;-87
2022/03/04 13:26:05;;;;;;;;;;;20.00;23.00;;;;;;5056316;28;20349;-87
2022/03/04 13:28:50;;;;;;;;;;;20.40;21.10;;;;;;5051271;28;19939;-87
2022/03/04 13:31:22;;;;;;;;;;;19.80;23.10;;;;;;5046721;28;19920;-88
2022/03/04 13:33:48;;;;;;;;;;;20.00;24.00;;;;;;5052712;28;19924;-88
2022/03/04 13:36:13;;;;;;;;;;;20.20;22.00;;;;;;5058735;28;19912;-88
2022/03/04 13:38:40;;;;;;;;;;;21.20;22.50;;;;;;5055554;28;20429;-88
2022/03/04 13:41:21;;;;;;;;;;;22.10;20.90;;;;;;5052351;28;19920;-88
2022/03/04 13:43:46;;;;;;;;;;;23.10;19.90;;;;;;5053959;28;20062;-88
2022/03/04 13:46:12;;;;;;;;;;;23.30;19.70;;;;;;5051534;28;20391;-88
2022/03/04 13:48:38;;;;;;;;;;;22.40;18.60;;;;;;5051584;28;20493;-87
2022/03/04 13:51:12;;;;;;;;;;;21.60;20.30;;;;;;5051621;28;19917;-87
2022/03/04 13:53:54;;;;;;;;;;;20.30;20.90;;;;;;5053056;28;20055;-86
2022/03/04 13:56:21;;;;;;;;;;;20.60;21.10;;;;;;5052015;28;19913;-87
2022/03/04 13:58:54;;;;;;;;;;;21.20;21.40;;;;;;5055995;28;20011;-87
2022/03/04 14:01:21;;;;;;;;;;;21.40;20.90;;;;;;5052841;28;19921;-88
2022/03/04 14:03:47;;;;;;;;;;;21.90;21.40;;;;;;5050203;28;19920;-87
2022/03/04 14:06:13;;;;;;;;;;;22.80;20.90;;;;;;5052513;28;20339;-87
2022/03/04 14:08:39;;;;;;;;;;;23.80;19.70;;;;;;5051289;28;20360;-87
2022/03/04 14:11:06;;;;;;;;;;;24.20;19.70;;;;;;5053674;28;19920;-87
2022/03/04 14:13:32;;;;;;;;;;;24.40;18.60;;;;;;5051950;28;20302;-87
2022/03/04 14:15:59;;;;;;;;;;;24.70;17.20;;;;;;5051385;28;19917;-87
2022/03/04 14:18:26;;;;;;;;;;;24.00;19.20;;;;;;5049970;28;19919;-87
2022/03/04 14:20:52;;;;;;;;;;;23.30;19.60;;;;;;5051385;28;19967;-87
2022/03/04 14:23:18;;;;;;;;;;;23.30;19.80;;;;;;5051844;28;19924;-86
2022/03/04 14:25:44;;;;;;;;;;;22.60;19.60;;;;;;5049506;28;20057;-86
2022/03/04 14:28:11;;;;;;;;;;;21.80;21.50;;;;;;5046762;28;21259;-86
2022/03/04 14:30:37;;;;;;;;;;;21.70;21.60;;;;;;5050735;28;20208;-86
2022/03/04 14:33:04;;;;;;;;;;;21.50;21.20;;;;;;5050653;28;19913;-87
2022/03/04 14:35:31;;;;;;;;;;;21.20;22.00;;;;;;5051952;28;19919;-87
2022/03/04 14:37:57;;;;;;;;;;;21.20;21.40;;;;;;5050375;28;19913;-87
2022/03/04 14:40:23;;;;;;;;;;;21.00;21.90;;;;;;5051466;28;20398;-87